Time;durP1;ratioP1;P1;durP2;ratioP2;P2;SDS_P1;SDS_P2;PMS_P1;PMS_P2;Temp;Humidity;BMP_temperature;BMP_pressure;BME280_temperature;BME280_humidity;BME280_pressure;Samples;Min_cycle;Max_cycle;Signal;HPM_P1;HPM_P2
2021/04/30 00:02:16;;;;;;;4.17;2.60;;;8.30;81.50;;;;;;4993446;28;20194;-76
2021/04/30 00:04:42;;;;;;;5.23;2.63;;;8.20;81.60;;;;;;4975720;28;20198;-76
2021/04/30 00:07:08;;;;;;;3.80;2.57;;;8.20;81.90;;;;;;4975433;28;20509;-75
2021/04/30 00:09:33;;;;;;;4.40;2.80;;;8.20;82.10;;;;;;4993255;28;20171;-76
2021/04/30 00:11:59;;;;;;;4.77;2.63;;;8.20;82.20;;;;;;4975915;28;20629;-76
2021/04/30 00:14:25;;;;;;;4.13;2.47;;;8.20;82.40;;;;;;4995190;28;20183;-76
2021/04/30 00:16:52;;;;;;;3.53;2.33;;;8.10;82.60;;;;;;4992754;28;20657;-76
2021/04/30 00:19:19;;;;;;;3.35;2.63;;;8.20;82.70;;;;;;4975683;28;20570;-76
2021/04/30 00:21:46;;;;;;;4.85;2.88;;;8.20;83.00;;;;;;4992855;28;20167;-76
2021/04/30 00:24:13;;;;;;;5.18;2.95;;;8.10;83.40;;;;;;4992882;28;20179;-76
2021/04/30 00:26:39;;;;;;;7.13;2.88;;;8.10;83.60;;;;;;4975078;28;20713;-76
2021/04/30 00:29:05;;;;;;;6.80;3.73;;;8.10;83.90;;;;;;4992840;28;20167;-76
2021/04/30 00:31:31;;;;;;;8.00;2.40;;;8.10;84.10;;;;;;4992789;28;21213;-76
2021/04/30 00:33:57;;;;;;;3.75;2.70;;;8.10;84.00;;;;;;4995895;28;20565;-79
2021/04/30 00:36:23;;;;;;;6.28;3.00;;;8.10;84.10;;;;;;4977650;28;20175;-79
2021/04/30 00:38:49;;;;;;;5.07;2.67;;;8.10;84.50;;;;;;4979325;28;20163;-79
2021/04/30 00:41:17;;;;;;;5.20;2.70;;;8.10;84.60;;;;;;4997627;28;21110;-78
2021/04/30 00:43:43;;;;;;;4.50;2.83;;;8.10;84.80;;;;;;4997221;28;20191;-78
2021/04/30 00:46:09;;;;;;;4.97;3.10;;;8.10;85.00;;;;;;4998038;28;20201;-78
2021/04/30 00:48:34;;;;;;;5.30;2.87;;;8.10;85.10;;;;;;4998125;28;20171;-79
2021/04/30 00:51:00;;;;;;;4.30;2.23;;;8.20;85.60;;;;;;5000677;28;20179;-78
2021/04/30 00:53:26;;;;;;;3.75;2.17;;;8.20;85.60;;;;;;4997865;28;20675;-79
2021/04/30 00:55:52;;;;;;;8.47;2.97;;;8.20;85.80;;;;;;4998419;28;20171;-78
2021/04/30 00:58:19;;;;;;;3.23;2.60;;;8.20;86.00;;;;;;4965213;28;20256;-79
2021/04/30 01:00:45;;;;;;;5.25;2.92;;;8.20;86.00;;;;;;4998533;28;20601;-78
2021/04/30 01:03:10;;;;;;;4.07;2.40;;;8.20;86.40;;;;;;4998685;28;20195;-78
2021/04/30 01:05:37;;;;;;;4.87;2.80;;;8.20;86.60;;;;;;4998492;28;20178;-78
2021/04/30 01:08:04;;;;;;;3.50;2.95;;;8.20;86.50;;;;;;4979822;28;20214;-78
2021/04/30 01:10:30;;;;;;;4.05;2.88;;;8.20;86.60;;;;;;4980897;28;20238;-78
2021/04/30 01:12:56;;;;;;;5.45;3.15;;;8.20;86.60;;;;;;4998097;28;20214;-78
2021/04/30 01:15:22;;;;;;;5.18;3.30;;;8.20;86.70;;;;;;4998823;28;20730;-78
2021/04/30 01:17:48;;;;;;;6.55;3.15;;;8.20;86.90;;;;;;4997114;28;20195;-78
2021/04/30 01:20:20;;;;;;;4.37;3.40;;;8.20;87.10;;;;;;4998233;28;20243;-78
2021/04/30 01:22:54;;;;;;;4.20;3.08;;;8.10;87.50;;;;;;4964785;28;20678;-78
2021/04/30 01:25:23;;;;;;;3.75;3.15;;;8.10;88.00;;;;;;4996510;28;20175;-78
2021/04/30 01:27:49;;;;;;;9.10;4.70;;;8.10;87.50;;;;;;4983247;28;20171;-78
2021/04/30 01:30:30;;;;;;;7.23;3.70;;;8.10;87.70;;;;;;4999158;28;20202;-78
2021/04/30 01:32:56;;;;;;;6.00;3.88;;;8.10;88.90;;;;;;4999214;28;20630;-78
2021/04/30 01:35:24;;;;;;;10.40;4.93;;;8.10;88.40;;;;;;4990495;28;20182;-78
2021/04/30 01:37:52;;;;;;;6.28;3.53;;;8.10;89.00;;;;;;5001408;28;20676;-78
2021/04/30 01:40:20;;;;;;;4.50;3.60;;;8.20;89.20;;;;;;4996733;28;20207;-79
2021/04/30 01:43:29;;;;;;;6.00;4.00;;;8.20;89.40;;;;;;4978710;28;20194;-79
2021/04/30 01:46:04;;;;;;;6.85;4.60;;;8.20;90.10;;;;;;4991000;28;20186;-79
2021/04/30 01:48:33;;;;;;;10.57;4.40;;;8.30;89.70;;;;;;4997858;28;20171;-78
2021/04/30 01:51:01;;;;;;;8.60;4.18;;;8.40;90.00;;;;;;5000107;28;20647;-78
2021/04/30 01:53:29;;;;;;;8.07;5.20;;;8.50;90.00;;;;;;5000834;28;20207;-79
2021/04/30 01:56:00;;;;;;;5.57;4.43;;;8.50;90.20;;;;;;4985411;28;20155;-79
2021/04/30 01:58:26;;;;;;;5.78;4.35;;;8.60;90.20;;;;;;5004829;28;20171;-78
2021/04/30 02:00:54;;;;;;;8.80;5.80;;;8.60;90.10;;;;;;5005641;28;20183;-78
2021/04/30 02:03:20;;;;;;;4.80;3.90;;;8.70;90.10;;;;;;4994344;28;20681;-79
2021/04/30 02:05:48;;;;;;;6.30;4.60;;;8.80;90.20;;;;;;5010947;28;20163;-79
2021/04/30 02:08:15;;;;;;;7.43;5.88;;;8.80;90.20;;;;;;4991480;28;20263;-79
2021/04/30 02:10:43;;;;;;;5.20;4.70;;;8.90;90.30;;;;;;5006585;28;20171;-79
2021/04/30 02:13:09;;;;;;;7.40;5.65;;;8.90;90.20;;;;;;5004765;28;20230;-78
2021/04/30 02:15:44;;;;;;;9.00;6.85;;;9.00;90.20;;;;;;4982429;28;20258;-79
2021/04/30 02:18:10;;;;;;;7.68;5.82;;;9.00;90.40;;;;;;4981784;28;20228;-79
2021/04/30 02:20:36;;;;;;;6.68;5.10;;;9.00;90.20;;;;;;4978910;28;20259;-79
2021/04/30 02:23:03;;;;;;;7.82;5.53;;;9.00;90.10;;;;;;4978452;28;20226;-79
2021/04/30 02:25:29;;;;;;;7.03;5.70;;;9.00;90.00;;;;;;4996821;28;20258;-79
2021/04/30 02:27:56;;;;;;;7.85;5.95;;;9.00;90.00;;;;;;4978746;28;20205;-79
2021/04/30 02:30:23;;;;;;;7.18;6.57;;;8.90;90.00;;;;;;4996296;28;20190;-79
2021/04/30 02:32:51;;;;;;;8.18;6.40;;;8.90;90.00;;;;;;4995488;28;20205;-80
2021/04/30 02:35:31;;;;;;;9.00;6.55;;;8.80;90.00;;;;;;4978109;28;20210;-79
2021/04/30 02:37:58;;;;;;;8.10;5.63;;;8.80;90.20;;;;;;4977511;28;20182;-79
2021/04/30 02:40:26;;;;;;;11.32;6.25;;;8.70;90.10;;;;;;4998170;28;20164;-79
2021/04/30 02:42:54;;;;;;;8.15;5.82;;;8.70;90.30;;;;;;4981482;28;20285;-79
2021/04/30 02:45:20;;;;;;;8.70;7.07;;;8.70;90.50;;;;;;4998858;28;20205;-79
2021/04/30 02:47:47;;;;;;;8.20;6.37;;;8.70;90.50;;;;;;4984890;28;20175;-78
2021/04/30 02:50:18;;;;;;;7.00;5.57;;;8.70;90.60;;;;;;4981341;28;20685;-79
2021/04/30 02:52:45;;;;;;;7.07;5.80;;;8.70;90.80;;;;;;4996120;28;20207;-79
2021/04/30 02:55:13;;;;;;;7.75;5.15;;;8.70;90.80;;;;;;4998215;28;20190;-79
2021/04/30 02:57:39;;;;;;;9.70;6.00;;;8.80;90.90;;;;;;4981539;28;20185;-79
2021/04/30 03:00:07;;;;;;;8.93;6.60;;;8.80;91.00;;;;;;4997611;28;20552;-78
2021/04/30 03:02:33;;;;;;;6.53;5.93;;;8.80;91.10;;;;;;4994411;28;21003;-79
2021/04/30 03:04:59;;;;;;;7.40;5.83;;;8.90;91.10;;;;;;4994567;28;20182;-79
2021/04/30 03:07:24;;;;;;;11.37;5.50;;;8.90;91.20;;;;;;4994009;28;20167;-78
2021/04/30 03:09:50;;;;;;;9.97;6.73;;;9.00;91.60;;;;;;4994247;28;20171;-79
2021/04/30 03:12:16;;;;;;;8.00;7.30;;;9.00;91.20;;;;;;4993980;28;20649;-79
2021/04/30 03:14:41;;;;;;;7.30;5.50;;;9.00;91.60;;;;;;4977180;28;20179;-79
2021/04/30 03:17:07;;;;;;;9.13;6.53;;;9.00;91.30;;;;;;4982799;28;20186;-79
2021/04/30 03:19:33;;;;;;;9.10;7.07;;;9.10;91.30;;;;;;4978531;28;20686;-79
2021/04/30 03:21:59;;;;;;;6.77;5.93;;;9.10;91.30;;;;;;5000715;28;20189;-78
2021/04/30 03:24:24;;;;;;;9.73;7.30;;;9.10;91.20;;;;;;4995841;28;20206;-78
2021/04/30 03:26:50;;;;;;;6.43;5.80;;;9.10;91.30;;;;;;4977392;28;20569;-78
2021/04/30 03:29:16;;;;;;;7.33;6.40;;;9.10;91.30;;;;;;4995193;28;20175;-78
2021/04/30 03:31:42;;;;;;;11.93;6.27;;;9.10;91.40;;;;;;4977125;28;20172;-79
2021/04/30 03:34:07;;;;;;;9.17;7.10;;;9.20;91.40;;;;;;4994911;28;20193;-78
2021/04/30 03:36:34;;;;;;;9.43;7.10;;;9.20;91.50;;;;;;4994528;28;20174;-78
2021/04/30 03:39:02;;;;;;;7.70;6.80;;;9.20;91.60;;;;;;4995795;28;20214;-78
2021/04/30 03:41:29;;;;;;;6.80;6.20;;;9.20;91.60;;;;;;4978611;28;20639;-78
2021/04/30 03:43:55;;;;;;;7.75;6.25;;;9.20;91.60;;;;;;4995860;28;20206;-78
2021/04/30 03:46:21;;;;;;;9.00;6.88;;;9.30;91.70;;;;;;4996095;28;20171;-78
2021/04/30 03:48:46;;;;;;;9.70;7.80;;;9.30;91.70;;;;;;4993504;28;20178;-79
2021/04/30 03:51:12;;;;;;;7.37;6.50;;;9.30;91.70;;;;;;4976879;28;20171;-78
2021/04/30 03:53:38;;;;;;;8.10;7.30;;;9.30;91.80;;;;;;4995929;28;20203;-78
2021/04/30 03:56:04;;;;;;;7.10;6.50;;;9.40;91.90;;;;;;5001088;28;20163;-78
2021/04/30 03:58:29;;;;;;;8.20;7.40;;;9.40;91.80;;;;;;4997137;28;20225;-78
2021/04/30 04:00:55;;;;;;;7.30;6.60;;;9.50;91.80;;;;;;5007704;28;20168;-78
2021/04/30 04:03:21;;;;;;;8.90;7.90;;;9.40;91.80;;;;;;5014414;28;20195;-78
2021/04/30 04:05:46;;;;;;;9.73;6.73;;;9.50;91.90;;;;;;5013253;28;20163;-78
2021/04/30 04:08:12;;;;;;;9.80;7.10;;;9.50;91.80;;;;;;5017016;28;20171;-78
2021/04/30 04:10:38;;;;;;;7.03;6.43;;;9.50;91.80;;;;;;5017829;28;20178;-78
2021/04/30 04:13:22;;;;;;;8.60;7.70;;;9.50;91.90;;;;;;5018708;28;20266;-78
2021/04/30 04:15:48;;;;;;;9.30;8.25;;;9.60;92.00;;;;;;4996977;28;20189;-78
2021/04/30 04:18:15;;;;;;;13.82;8.23;;;9.50;91.90;;;;;;4983479;28;20250;-78
2021/04/30 04:20:41;;;;;;;8.13;7.43;;;9.60;91.90;;;;;;4984703;28;20183;-78
2021/04/30 04:23:07;;;;;;;8.73;7.90;;;9.60;91.90;;;;;;4992149;28;20241;-77
2021/04/30 04:25:34;;;;;;;9.60;7.63;;;9.60;91.90;;;;;;4979745;28;20702;-76
2021/04/30 04:27:59;;;;;;;11.15;7.88;;;9.60;92.00;;;;;;4971686;28;20183;-75
2021/04/30 04:30:26;;;;;;;8.53;7.30;;;9.60;92.00;;;;;;4975274;28;20630;-76
2021/04/30 04:32:53;;;;;;;7.60;6.78;;;9.60;91.90;;;;;;4996227;28;20246;-75
2021/04/30 04:35:19;;;;;;;10.48;6.90;;;9.60;92.00;;;;;;4992715;28;20254;-76
2021/04/30 04:37:45;;;;;;;8.30;7.40;;;9.70;92.10;;;;;;4992306;28;20258;-76
2021/04/30 04:40:12;;;;;;;12.45;8.77;;;9.70;92.10;;;;;;4975407;28;20167;-76
2021/04/30 04:42:41;;;;;;;9.73;7.85;;;9.70;92.20;;;;;;4992566;28;20684;-76
2021/04/30 04:45:08;;;;;;;7.63;6.90;;;9.70;92.20;;;;;;4992613;28;20186;-76
2021/04/30 04:47:34;;;;;;;11.88;8.15;;;9.70;92.30;;;;;;4992216;28;20179;-75
2021/04/30 04:49:59;;;;;;;8.90;7.57;;;9.70;92.20;;;;;;4992492;28;20182;-75
2021/04/30 04:52:25;;;;;;;10.60;8.50;;;9.70;92.20;;;;;;4992332;28;20199;-76
2021/04/30 04:54:51;;;;;;;9.10;8.30;;;9.70;92.20;;;;;;4975195;28;20253;-76
2021/04/30 04:57:17;;;;;;;8.13;7.33;;;9.80;92.70;;;;;;4992002;28;20167;-76
2021/04/30 04:59:43;;;;;;;10.07;8.20;;;9.80;92.40;;;;;;4992462;28;20534;-76
2021/04/30 05:02:08;;;;;;;8.87;8.00;;;9.80;92.30;;;;;;4992232;28;20194;-76
2021/04/30 05:04:34;;;;;;;9.10;8.27;;;9.80;92.30;;;;;;4992290;28;20175;-75
2021/04/30 05:07:00;;;;;;;9.63;8.07;;;9.80;92.40;;;;;;4991765;28;20179;-75
2021/04/30 05:09:27;;;;;;;16.70;9.40;;;9.80;92.40;;;;;;4995543;28;21005;-76
2021/04/30 05:11:54;;;;;;;8.77;7.95;;;9.80;92.40;;;;;;4992216;28;20749;-75
2021/04/30 05:14:20;;;;;;;11.98;8.63;;;9.80;92.50;;;;;;4992200;28;20174;-75
2021/04/30 05:16:46;;;;;;;10.90;8.20;;;9.80;92.40;;;;;;4991909;28;20225;-75
2021/04/30 05:19:11;;;;;;;10.07;7.83;;;9.80;92.40;;;;;;4991868;28;20174;-76
2021/04/30 05:21:40;;;;;;;9.20;8.13;;;9.80;92.40;;;;;;4991963;28;20691;-76
2021/04/30 05:24:07;;;;;;;9.13;8.00;;;9.80;92.50;;;;;;4991883;28;20213;-76
2021/04/30 05:26:33;;;;;;;9.38;7.53;;;9.90;92.50;;;;;;4974172;28;20171;-76
2021/04/30 05:28:59;;;;;;;9.57;8.10;;;9.90;92.50;;;;;;4974668;28;20183;-76
2021/04/30 05:31:25;;;;;;;10.48;8.60;;;9.90;92.60;;;;;;4995097;28;20179;-75
2021/04/30 05:33:51;;;;;;;10.63;8.45;;;9.90;92.60;;;;;;4995898;28;20603;-75
2021/04/30 05:36:18;;;;;;;9.25;8.32;;;9.90;92.60;;;;;;4995826;28;20159;-75
2021/04/30 05:38:44;;;;;;;9.35;8.45;;;9.90;92.60;;;;;;4995800;28;20191;-75
2021/04/30 05:41:10;;;;;;;8.55;7.75;;;9.90;92.70;;;;;;4995814;28;20562;-75
2021/04/30 05:43:36;;;;;;;10.13;9.07;;;10.00;92.20;;;;;;4995850;28;20217;-75
2021/04/30 05:46:01;;;;;;;11.90;8.47;;;10.00;92.20;;;;;;4981687;28;20234;-75
2021/04/30 05:48:28;;;;;;;9.90;8.90;;;10.00;92.60;;;;;;4978063;28;20260;-75
2021/04/30 05:50:54;;;;;;;10.13;9.25;;;10.00;92.30;;;;;;4995860;28;20563;-79
2021/04/30 05:53:22;;;;;;;14.30;9.70;;;10.00;92.30;;;;;;4996147;28;20217;-80
2021/04/30 05:55:48;;;;;;;10.18;8.77;;;10.00;92.40;;;;;;4995948;28;20245;-80
2021/04/30 05:58:14;;;;;;;11.73;10.32;;;10.10;92.50;;;;;;4994905;28;20719;-79
2021/04/30 06:00:40;;;;;;;10.70;8.93;;;10.10;93.60;;;;;;4980960;28;20227;-78
2021/04/30 06:03:05;;;;;;;11.47;9.00;;;10.10;93.00;;;;;;4999018;28;20614;-81
2021/04/30 06:05:31;;;;;;;10.13;9.10;;;10.20;92.90;;;;;;5006768;28;20210;-78
2021/04/30 06:07:57;;;;;;;10.27;8.07;;;10.20;92.80;;;;;;5000985;28;20190;-78
2021/04/30 06:10:23;;;;;;;9.73;7.97;;;10.30;92.80;;;;;;5000386;28;20613;-78
2021/04/30 06:12:49;;;;;;;9.07;8.03;;;10.30;92.70;;;;;;4998513;28;20705;-78
2021/04/30 06:15:15;;;;;;;9.43;8.40;;;10.30;92.70;;;;;;4993907;28;20689;-78
2021/04/30 06:17:41;;;;;;;10.35;8.25;;;10.40;93.10;;;;;;4967790;28;20199;-77
2021/04/30 06:20:07;;;;;;;10.77;8.70;;;10.40;92.70;;;;;;5004016;28;20175;-78
2021/04/30 06:22:33;;;;;;;9.63;8.50;;;10.40;92.70;;;;;;4985446;28;20630;-78
2021/04/30 06:24:58;;;;;;;8.87;8.00;;;10.50;92.70;;;;;;4999037;28;20206;-78
2021/04/30 06:27:25;;;;;;;8.30;7.37;;;10.50;92.70;;;;;;4995980;28;20182;-78
2021/04/30 06:29:51;;;;;;;9.68;8.68;;;10.50;92.70;;;;;;4997876;28;20167;-78
2021/04/30 06:32:16;;;;;;;8.40;7.55;;;10.60;92.70;;;;;;4996303;28;20203;-79
2021/04/30 06:34:42;;;;;;;10.67;8.33;;;10.60;92.70;;;;;;4997053;28;20197;-79
2021/04/30 06:37:08;;;;;;;8.33;7.50;;;10.60;92.70;;;;;;4996780;28;20179;-78
2021/04/30 06:39:34;;;;;;;11.63;8.50;;;10.60;92.70;;;;;;4995881;28;20167;-78
2021/04/30 06:42:02;;;;;;;9.73;7.27;;;10.70;92.80;;;;;;4963964;28;20643;-78
2021/04/30 06:44:30;;;;;;;8.73;7.60;;;10.70;92.80;;;;;;4999066;28;20174;-77
2021/04/30 06:46:57;;;;;;;14.45;8.35;;;10.70;92.70;;;;;;4996161;28;20178;-78
2021/04/30 06:49:23;;;;;;;8.00;7.20;;;10.80;92.70;;;;;;4998385;28;20175;-78
2021/04/30 06:51:49;;;;;;;8.80;7.50;;;10.80;92.70;;;;;;5006444;28;20646;-78
2021/04/30 06:54:16;;;;;;;10.13;8.15;;;10.80;92.90;;;;;;4998517;28;20632;-78
2021/04/30 06:56:42;;;;;;;10.35;9.15;;;10.80;92.70;;;;;;4999279;28;20159;-78
2021/04/30 06:59:08;;;;;;;9.32;7.93;;;10.80;92.70;;;;;;4979958;28;20278;-79
2021/04/30 07:01:34;;;;;;;8.30;7.50;;;10.90;92.80;;;;;;4984325;28;20210;-77
2021/04/30 07:03:59;;;;;;;12.30;9.33;;;11.00;92.80;;;;;;5001510;28;20726;-78
2021/04/30 07:06:25;;;;;;;10.30;9.20;;;11.00;92.80;;;;;;4998314;28;20224;-77
2021/04/30 07:08:52;;;;;;;10.93;8.60;;;11.00;92.80;;;;;;4978613;28;20182;-77
2021/04/30 07:11:18;;;;;;;11.25;8.18;;;11.10;92.90;;;;;;4978600;28;20530;-77
2021/04/30 07:13:43;;;;;;;12.00;7.67;;;11.20;93.30;;;;;;4994418;28;20206;-78
2021/04/30 07:16:09;;;;;;;13.82;12.00;;;11.20;92.80;;;;;;4993172;28;20708;-78
2021/04/30 07:18:35;;;;;;;11.00;9.90;;;11.10;93.50;;;;;;4993680;28;20167;-78
2021/04/30 07:21:01;;;;;;;15.43;9.43;;;11.20;93.30;;;;;;4994219;28;20892;-77
2021/04/30 07:23:28;;;;;;;11.10;9.57;;;11.30;93.20;;;;;;4993617;28;20629;-78
2021/04/30 07:25:54;;;;;;;11.82;9.30;;;11.40;93.10;;;;;;4994132;28;20179;-78
2021/04/30 07:28:20;;;;;;;11.20;8.80;;;11.40;93.00;;;;;;4976429;28;20270;-78
2021/04/30 07:30:46;;;;;;;9.80;8.80;;;11.50;93.00;;;;;;4995234;28;20577;-79
2021/04/30 07:33:12;;;;;;;11.77;8.63;;;11.50;93.00;;;;;;4994713;28;20622;-78
2021/04/30 07:35:41;;;;;;;9.63;8.63;;;11.60;92.90;;;;;;4977387;28;20570;-78
2021/04/30 07:38:08;;;;;;;8.77;7.88;;;11.60;92.90;;;;;;4998542;28;21157;-81
2021/04/30 07:40:38;;;;;;;10.27;9.23;;;11.60;92.80;;;;;;4994545;28;20574;-81
2021/04/30 07:43:03;;;;;;;11.48;9.77;;;11.70;92.70;;;;;;4977630;28;20197;-79
2021/04/30 07:45:29;;;;;;;10.23;9.33;;;11.60;92.60;;;;;;4994925;28;20526;-81
2021/04/30 07:47:55;;;;;;;15.20;9.17;;;11.60;92.60;;;;;;5006272;28;20190;-81
2021/04/30 07:50:21;;;;;;;9.37;8.57;;;11.60;92.50;;;;;;5009694;28;20261;-80
2021/04/30 07:52:47;;;;;;;12.35;8.23;;;11.60;92.50;;;;;;5013050;28;20199;-81
2021/04/30 07:55:13;;;;;;;16.20;10.00;;;11.60;92.60;;;;;;5015593;28;20242;-82
2021/04/30 07:57:39;;;;;;;12.03;8.90;;;11.60;92.60;;;;;;5016447;28;20639;-78
2021/04/30 08:00:07;;;;;;;9.02;7.78;;;11.70;92.70;;;;;;5015301;28;20171;-80
2021/04/30 08:02:38;;;;;;;11.65;8.88;;;11.70;92.70;;;;;;5010329;28;20210;-79
2021/04/30 08:05:05;;;;;;;10.27;8.07;;;11.70;92.70;;;;;;5009734;28;20191;-79
2021/04/30 08:07:31;;;;;;;10.30;8.45;;;11.70;92.70;;;;;;4995294;28;20250;-79
2021/04/30 08:09:57;;;;;;;11.10;9.27;;;11.70;92.70;;;;;;4992316;28;20186;-80
2021/04/30 08:12:22;;;;;;;9.60;7.77;;;11.70;92.70;;;;;;5006779;28;20205;-80
2021/04/30 08:14:48;;;;;;;10.67;9.60;;;11.70;92.70;;;;;;5006203;28;21317;-78
2021/04/30 08:17:14;;;;;;;10.53;8.20;;;11.70;92.80;;;;;;4995155;28;20226;-79
2021/04/30 08:19:40;;;;;;;12.90;9.67;;;11.80;92.90;;;;;;4976431;28;20237;-78
2021/04/30 08:22:07;;;;;;;10.87;8.10;;;11.80;92.90;;;;;;4993094;28;20825;-78
2021/04/30 08:24:33;;;;;;;10.38;9.20;;;11.90;92.80;;;;;;4975905;28;20200;-80
2021/04/30 08:26:59;;;;;;;10.65;8.25;;;11.90;92.80;;;;;;4975351;28;20175;-78
2021/04/30 08:29:25;;;;;;;12.05;8.60;;;11.90;92.70;;;;;;4976015;28;20600;-78
2021/04/30 08:31:51;;;;;;;13.40;8.27;;;11.90;92.70;;;;;;4992962;28;20171;-79
2021/04/30 08:34:16;;;;;;;14.13;10.07;;;11.90;92.70;;;;;;4992969;28;20214;-78
2021/04/30 08:36:42;;;;;;;9.60;8.70;;;12.00;92.80;;;;;;4992422;28;20601;-79
2021/04/30 08:39:09;;;;;;;11.10;9.53;;;12.00;92.80;;;;;;4992743;28;20174;-79
2021/04/30 08:41:37;;;;;;;10.55;9.43;;;12.00;92.80;;;;;;4992881;28;20211;-78
2021/04/30 08:44:06;;;;;;;12.23;9.40;;;12.00;92.80;;;;;;4992776;28;20572;-78
2021/04/30 08:46:33;;;;;;;13.32;9.85;;;12.00;92.80;;;;;;4975073;28;20266;-78
2021/04/30 08:49:04;;;;;;;9.40;8.43;;;12.10;92.80;;;;;;4975788;28;20178;-79
2021/04/30 08:51:30;;;;;;;11.48;9.65;;;12.10;92.80;;;;;;4995895;28;20191;-79
2021/04/30 08:53:56;;;;;;;9.70;8.57;;;12.10;92.80;;;;;;4975229;28;20597;-79
2021/04/30 08:56:22;;;;;;;10.20;9.13;;;12.20;92.80;;;;;;4992434;28;20620;-79
2021/04/30 08:58:48;;;;;;;9.73;8.67;;;12.20;92.80;;;;;;4992439;28;20566;-79
2021/04/30 09:01:14;;;;;;;10.68;9.48;;;12.20;92.90;;;;;;4976257;28;20230;-78
2021/04/30 09:03:40;;;;;;;10.03;8.87;;;12.20;92.80;;;;;;4975382;28;20667;-78
2021/04/30 09:06:06;;;;;;;11.63;9.30;;;12.30;92.90;;;;;;4975423;28;20574;-78
2021/04/30 09:08:48;;;;;;;11.20;9.33;;;12.30;92.80;;;;;;4974806;28;20931;-79
2021/04/30 09:11:33;;;;;;;9.48;8.35;;;12.40;92.90;;;;;;4992534;28;20577;-79
2021/04/30 09:14:37;;;;;;;9.75;8.45;;;12.40;92.80;;;;;;4992212;28;20233;-78
2021/04/30 09:17:14;;;;;;;10.40;8.27;;;12.50;92.90;;;;;;4992097;28;20163;-79
2021/04/30 09:19:47;;;;;;;9.70;8.75;;;12.50;92.90;;;;;;4992290;28;20163;-78
2021/04/30 09:22:17;;;;;;;13.30;9.45;;;12.60;92.90;;;;;;4974604;28;20974;-79
2021/04/30 09:24:48;;;;;;;14.77;10.43;;;12.70;93.00;;;;;;4991948;28;20167;-78
2021/04/30 09:27:33;;;;;;;12.27;9.00;;;12.70;92.90;;;;;;4993178;28;20163;-78
2021/04/30 09:30:17;;;;;;;12.52;9.95;;;12.80;92.90;;;;;;4993250;28;20218;-78
2021/04/30 09:33:02;;;;;;;13.80;10.15;;;13.00;92.90;;;;;;4974511;28;20730;-79
2021/04/30 09:35:28;;;;;;;16.50;9.70;;;13.10;93.00;;;;;;4991033;28;20159;-79
2021/04/30 09:37:56;;;;;;;10.60;9.43;;;13.30;93.20;;;;;;4972493;28;20179;-79
2021/04/30 09:40:31;;;;;;;9.98;8.30;;;13.50;93.10;;;;;;4992079;28;20573;-79
2021/04/30 09:43:04;;;;;;;10.95;9.43;;;13.60;92.70;;;;;;4992280;28;20198;-79
2021/04/30 09:45:31;;;;;;;13.90;10.07;;;13.70;92.50;;;;;;4992136;28;20225;-79
2021/04/30 09:48:00;;;;;;;35.30;11.35;;;13.80;92.40;;;;;;4992136;28;20175;-80
2021/04/30 09:50:28;;;;;;;13.68;10.80;;;13.90;92.30;;;;;;4974839;28;20707;-80
2021/04/30 09:53:03;;;;;;;14.75;10.60;;;14.00;92.00;;;;;;4992004;28;20245;-79
2021/04/30 09:55:49;;;;;;;45.60;11.70;;;14.00;91.80;;;;;;4992100;28;20174;-78
2021/04/30 09:58:20;;;;;;;10.38;9.38;;;14.10;91.60;;;;;;4996382;28;20163;-78
2021/04/30 10:00:54;;;;;;;11.70;8.52;;;14.20;91.70;;;;;;4997557;28;20182;-79
2021/04/30 10:03:24;;;;;;;10.05;9.00;;;14.30;91.70;;;;;;4992550;28;20244;-80
2021/04/30 10:06:05;;;;;;;10.95;9.30;;;14.40;91.90;;;;;;4995205;28;20279;-78
2021/04/30 10:08:32;;;;;;;12.48;10.20;;;14.60;91.80;;;;;;4974513;28;20528;-79
2021/04/30 10:10:58;;;;;;;14.00;10.05;;;14.80;91.80;;;;;;4974314;28;20183;-78
2021/04/30 10:13:24;;;;;;;10.20;8.77;;;14.90;91.30;;;;;;4991722;28;20675;-80
2021/04/30 10:15:50;;;;;;;14.40;10.87;;;15.00;90.80;;;;;;4958324;28;20175;-80
2021/04/30 10:18:19;;;;;;;12.23;9.67;;;15.00;90.30;;;;;;4977629;28;20234;-79
2021/04/30 10:20:45;;;;;;;10.30;9.30;;;15.00;90.20;;;;;;4995170;28;20210;-78
2021/04/30 10:23:17;;;;;;;10.60;9.13;;;15.10;90.30;;;;;;4977509;28;20199;-80
2021/04/30 10:25:49;;;;;;;12.00;10.68;;;15.10;90.20;;;;;;4995109;28;20186;-78
2021/04/30 10:28:26;;;;;;;9.90;9.00;;;15.10;89.90;;;;;;4994727;28;20254;-78
2021/04/30 10:30:56;;;;;;;10.55;9.32;;;15.10;89.40;;;;;;4994541;28;20722;-79
2021/04/30 10:33:29;;;;;;;11.00;9.70;;;15.20;89.30;;;;;;4977635;28;20238;-76
2021/04/30 10:36:29;;;;;;;12.80;11.50;;;15.20;89.20;;;;;;4994850;28;20175;-76
2021/04/30 10:38:56;;;;;;;11.90;9.38;;;15.20;88.60;;;;;;4994841;28;20162;-76
2021/04/30 10:41:34;;;;;;;10.07;9.07;;;15.30;89.10;;;;;;4978125;28;20226;-76
2021/04/30 10:44:12;;;;;;;10.55;9.55;;;15.30;88.40;;;;;;4995690;28;20217;-77
2021/04/30 10:46:38;;;;;;;12.38;8.60;;;15.30;88.30;;;;;;4994305;28;20326;-76
2021/04/30 10:49:04;;;;;;;10.80;8.73;;;15.30;88.40;;;;;;4994151;28;20171;-75
2021/04/30 10:51:33;;;;;;;9.07;8.10;;;15.30;87.80;;;;;;4977078;28;20178;-75
2021/04/30 10:54:21;;;;;;;14.18;9.90;;;15.30;87.80;;;;;;4994257;28;20238;-76
2021/04/30 10:57:09;;;;;;;11.00;9.85;;;15.30;86.70;;;;;;4993535;28;20510;-75
2021/04/30 10:59:40;;;;;;;13.02;10.65;;;15.30;87.10;;;;;;4991434;28;20177;-75
2021/04/30 11:02:35;;;;;;;12.77;10.38;;;15.30;86.90;;;;;;4976232;28;20187;-75
2021/04/30 11:07:43;;;;;;;12.43;9.98;;;15.40;87.00;;;;;;4993336;28;20258;-77
2021/04/30 11:10:26;;;;;;;15.43;11.00;;;15.40;86.90;;;;;;4994256;28;20531;-77
2021/04/30 11:12:59;;;;;;;11.65;9.57;;;15.50;86.50;;;;;;4991895;28;20218;-77
2021/04/30 11:15:29;;;;;;;15.55;9.95;;;15.50;86.80;;;;;;4993699;28;20167;-76
2021/04/30 11:18:02;;;;;;;11.13;10.00;;;15.60;87.10;;;;;;4993276;28;20535;-76
2021/04/30 11:20:30;;;;;;;14.15;10.30;;;15.70;86.80;;;;;;4994003;28;20582;-76
2021/04/30 11:23:27;;;;;;;10.30;9.18;;;15.80;86.20;;;;;;4993348;28;20234;-76
2021/04/30 11:26:04;;;;;;;15.00;10.85;;;15.80;86.10;;;;;;4940342;28;20520;-77
2021/04/30 11:28:29;;;;;;;10.10;9.10;;;15.90;86.40;;;;;;4993268;28;20171;-76
2021/04/30 11:31:05;;;;;;;11.60;10.07;;;16.00;86.70;;;;;;4994047;28;20640;-75
2021/04/30 11:33:35;;;;;;;12.35;11.00;;;16.10;86.10;;;;;;4994069;28;20206;-76
2021/04/30 11:36:02;;;;;;;11.43;10.20;;;16.30;86.40;;;;;;4993459;28;20560;-75
2021/04/30 11:38:39;;;;;;;12.20;11.00;;;16.40;86.10;;;;;;4993090;28;20583;-75
2021/04/30 11:41:07;;;;;;;13.90;9.10;;;16.60;86.10;;;;;;4993439;28;20582;-75
2021/04/30 11:43:33;;;;;;;15.30;10.33;;;16.80;86.70;;;;;;4993578;28;20610;-75
2021/04/30 11:45:59;;;;;;;14.80;10.83;;;17.00;86.70;;;;;;4993589;28;20594;-75
2021/04/30 11:48:27;;;;;;;12.90;10.50;;;17.20;86.40;;;;;;4975288;28;21164;-76
2021/04/30 11:51:06;;;;;;;11.00;9.90;;;17.40;85.40;;;;;;4975932;28;20562;-75
2021/04/30 11:53:33;;;;;;;10.40;8.67;;;17.50;83.90;;;;;;4975799;28;20641;-75
2021/04/30 11:56:00;;;;;;;11.63;10.07;;;17.70;84.00;;;;;;4995106;28;20674;-76
2021/04/30 11:58:42;;;;;;;13.50;10.47;;;17.90;84.30;;;;;;4993255;28;20910;-76
2021/04/30 12:01:10;;;;;;;12.03;10.57;;;18.00;82.10;;;;;;4975303;28;20574;-76
2021/04/30 12:03:43;;;;;;;11.43;10.10;;;18.10;81.90;;;;;;4992776;28;20594;-75
2021/04/30 12:06:14;;;;;;;12.87;10.10;;;18.10;80.70;;;;;;4992631;28;20613;-77
2021/04/30 12:08:41;;;;;;;12.67;10.27;;;18.20;80.50;;;;;;4959249;28;20587;-75
2021/04/30 12:11:20;;;;;;;10.67;9.23;;;18.20;79.60;;;;;;4975369;28;20744;-75
2021/04/30 12:13:46;;;;;;;10.23;8.90;;;18.30;79.40;;;;;;4975291;28;21120;-76
2021/04/30 12:16:19;;;;;;;12.70;8.70;;;18.40;79.10;;;;;;4975095;28;20574;-76
2021/04/30 12:18:46;;;;;;;10.57;9.53;;;18.40;78.60;;;;;;4992598;28;20167;-76
2021/04/30 12:21:31;;;;;;;13.10;10.07;;;18.50;78.50;;;;;;4975074;28;20583;-76
2021/04/30 12:23:58;;;;;;;11.43;9.83;;;18.40;77.10;;;;;;4992225;28;20665;-75
2021/04/30 12:26:25;;;;;;;11.90;10.73;;;18.40;76.70;;;;;;4991782;28;20701;-75
2021/04/30 12:28:51;;;;;;;13.60;10.30;;;18.40;76.70;;;;;;4992467;28;20589;-75
2021/04/30 12:31:17;;;;;;;13.97;10.07;;;18.40;76.50;;;;;;4992074;28;20598;-75
2021/04/30 12:33:48;;;;;;;12.00;10.80;;;18.50;76.90;;;;;;4992291;28;20206;-75
2021/04/30 12:36:32;;;;;;;10.87;9.87;;;18.50;76.80;;;;;;4942142;28;21150;-75
2021/04/30 12:39:02;;;;;;;9.77;8.80;;;18.70;76.40;;;;;;4971403;28;20590;-75
2021/04/30 12:41:33;;;;;;;12.53;9.87;;;18.80;77.20;;;;;;4988355;28;20604;-75
2021/04/30 12:44:01;;;;;;;20.07;10.80;;;18.90;76.20;;;;;;4990860;28;20643;-75
2021/04/30 12:46:29;;;;;;;12.70;9.03;;;19.00;74.90;;;;;;4989649;28;20578;-75
2021/04/30 12:49:04;;;;;;;12.40;10.43;;;19.00;74.90;;;;;;4990324;28;20618;-75
2021/04/30 12:51:32;;;;;;;11.57;10.50;;;19.10;73.50;;;;;;4991001;28;20582;-76
2021/04/30 12:54:01;;;;;;;14.20;9.60;;;19.10;73.80;;;;;;4991782;28;20630;-75
2021/04/30 12:56:40;;;;;;;14.03;10.80;;;19.20;74.30;;;;;;4990491;28;20681;-76